sensor_id;sensor_type;location;lat;lon;timestamp;pressure;altitude;pressure_sealevel;temperature;humidity
1207;BME280;593;53.184;8.216;2024-02-04T00:01:57;101566.16;;;9.97;100.00
1207;BME280;593;53.184;8.216;2024-02-04T00:04:23;101565.03;;;9.98;100.00
1207;BME280;593;53.184;8.216;2024-02-04T00:06:52;101572.97;;;9.99;100.00
1207;BME280;593;53.184;8.216;2024-02-04T00:09:17;101557.44;;;10.00;100.00
1207;BME280;593;53.184;8.216;2024-02-04T00:11:44;101554.72;;;10.00;100.00
1207;BME280;593;53.184;8.216;2024-02-04T00:14:09;101559.38;;;9.99;100.00
1207;BME280;593;53.184;8.216;2024-02-04T00:16:35;101544.63;;;9.95;100.00
1207;BME280;593;53.184;8.216;2024-02-04T00:19:02;101554.44;;;9.96;100.00
1207;BME280;593;53.184;8.216;2024-02-04T00:21:27;101566.38;;;9.95;100.00
1207;BME280;593;53.184;8.216;2024-02-04T00:23:53;101563.66;;;9.95;100.00
1207;BME280;593;53.184;8.216;2024-02-04T00:26:18;101554.13;;;9.93;100.00
1207;BME280;593;53.184;8.216;2024-02-04T00:28:43;101556.00;;;9.92;100.00
1207;BME280;593;53.184;8.216;2024-02-04T00:31:09;101547.31;;;9.90;100.00
1207;BME280;593;53.184;8.216;2024-02-04T00:33:37;101544.03;;;9.88;100.00
1207;BME280;593;53.184;8.216;2024-02-04T00:36:03;101540.75;;;9.86;100.00
1207;BME280;593;53.184;8.216;2024-02-04T00:38:28;101545.34;;;9.86;100.00
1207;BME280;593;53.184;8.216;2024-02-04T00:40:54;101553.78;;;9.84;100.00
1207;BME280;593;53.184;8.216;2024-02-04T00:43:21;101554.28;;;9.81;100.00
1207;BME280;593;53.184;8.216;2024-02-04T00:45:47;101554.00;;;9.83;100.00
1207;BME280;593;53.184;8.216;2024-02-04T00:48:12;101535.97;;;9.72;100.00
1207;BME280;593;53.184;8.216;2024-02-04T00:50:38;101543.66;;;9.80;100.00
1207;BME280;593;53.184;8.216;2024-02-04T00:53:03;101551.25;;;9.78;100.00
1207;BME280;593;53.184;8.216;2024-02-04T00:55:29;101551.50;;;9.76;100.00
1207;BME280;593;53.184;8.216;2024-02-04T00:57:55;101542.81;;;9.74;100.00
1207;BME280;593;53.184;8.216;2024-02-04T01:00:23;101540.31;;;9.73;100.00
1207;BME280;593;53.184;8.216;2024-02-04T01:02:49;101537.31;;;9.69;100.00
1207;BME280;593;53.184;8.216;2024-02-04T01:05:14;101542.75;;;9.69;100.00
1207;BME280;593;53.184;8.216;2024-02-04T01:07:40;101531.28;;;9.67;100.00
1207;BME280;593;53.184;8.216;2024-02-04T01:10:05;101522.59;;;9.65;100.00
1207;BME280;593;53.184;8.216;2024-02-04T01:12:31;101532.38;;;9.66;100.00
1207;BME280;593;53.184;8.216;2024-02-04T01:14:56;101533.16;;;9.61;100.00
1207;BME280;593;53.184;8.216;2024-02-04T01:17:22;101541.03;;;9.63;100.00
1207;BME280;593;53.184;8.216;2024-02-04T01:19:47;101546.47;;;9.63;100.00
1207;BME280;593;53.184;8.216;2024-02-04T01:22:13;101553.22;;;9.60;100.00
1207;BME280;593;53.184;8.216;2024-02-04T01:24:38;101545.84;;;9.56;100.00
1207;BME280;593;53.184;8.216;2024-02-04T01:27:04;101551.84;;;9.58;100.00
1207;BME280;593;53.184;8.216;2024-02-04T01:29:29;101555.38;;;9.58;100.00
1207;BME280;593;53.184;8.216;2024-02-04T01:31:54;101557.53;;;9.56;100.00
1207;BME280;593;53.184;8.216;2024-02-04T01:34:20;101549.63;;;9.55;100.00
1207;BME280;593;53.184;8.216;2024-02-04T01:36:45;101550.44;;;9.55;100.00
1207;BME280;593;53.184;8.216;2024-02-04T01:39:10;101544.47;;;9.53;100.00
1207;BME280;593;53.184;8.216;2024-02-04T01:41:36;101525.44;;;9.53;100.00
1207;BME280;593;53.184;8.216;2024-02-04T01:44:02;101527.00;;;9.49;100.00
1207;BME280;593;53.184;8.216;2024-02-04T01:46:28;101522.69;;;9.48;100.00
1207;BME280;593;53.184;8.216;2024-02-04T01:48:54;101515.59;;;9.47;100.00
1207;BME280;593;53.184;8.216;2024-02-04T01:51:20;101506.88;;;9.45;100.00
1207;BME280;593;53.184;8.216;2024-02-04T01:53:46;101516.41;;;9.48;100.00
1207;BME280;593;53.184;8.216;2024-02-04T01:56:13;101521.84;;;9.48;100.00
1207;BME280;593;53.184;8.216;2024-02-04T01:58:39;101507.97;;;9.44;100.00
1207;BME280;593;53.184;8.216;2024-02-04T02:01:05;101512.59;;;9.44;100.00
1207;BME280;593;53.184;8.216;2024-02-04T02:03:34;101509.88;;;9.44;100.00
1207;BME280;593;53.184;8.216;2024-02-04T02:06:01;101503.59;;;9.43;100.00
1207;BME280;593;53.184;8.216;2024-02-04T02:08:26;101496.22;;;9.39;100.00
1207;BME280;593;53.184;8.216;2024-02-04T02:10:58;101503.06;;;9.41;100.00
1207;BME280;593;53.184;8.216;2024-02-04T02:13:29;101495.97;;;9.40;100.00
1207;BME280;593;53.184;8.216;2024-02-04T02:16:13;101493.25;;;9.40;100.00
1207;BME280;593;53.184;8.216;2024-02-04T02:19:52;101498.94;;;9.39;100.00
1207;BME280;593;53.184;8.216;2024-02-04T02:26:50;101497.22;;;9.33;100.00
1207;BME280;593;53.184;8.216;2024-02-04T02:29:16;101503.75;;;9.32;100.00
1207;BME280;593;53.184;8.216;2024-02-04T02:31:42;101507.19;;;9.27;100.00
1207;BME280;593;53.184;8.216;2024-02-04T02:34:09;101498.81;;;9.29;100.00
1207;BME280;593;53.184;8.216;2024-02-04T02:36:47;101493.63;;;9.27;100.00
1207;BME280;593;53.184;8.216;2024-02-04T02:39:20;101479.25;;;9.27;100.00
1207;BME280;593;53.184;8.216;2024-02-04T02:41:49;101479.50;;;9.25;100.00
1207;BME280;593;53.184;8.216;2024-02-04T02:44:15;101473.50;;;9.23;100.00
1207;BME280;593;53.184;8.216;2024-02-04T02:46:41;101465.63;;;9.22;100.00
1207;BME280;593;53.184;8.216;2024-02-04T02:49:08;101466.69;;;9.21;100.00
1207;BME280;593;53.184;8.216;2024-02-04T02:51:33;101466.13;;;9.19;100.00
1207;BME280;593;53.184;8.216;2024-02-04T02:53:59;101463.91;;;9.16;100.00
1207;BME280;593;53.184;8.216;2024-02-04T02:56:24;101456.28;;;9.13;100.00
1207;BME280;593;53.184;8.216;2024-02-04T02:58:50;101459.56;;;9.15;100.00
1207;BME280;593;53.184;8.216;2024-02-04T03:01:15;101454.38;;;9.13;100.00
1207;BME280;593;53.184;8.216;2024-02-04T03:03:41;101452.16;;;9.10;100.00
1207;BME280;593;53.184;8.216;2024-02-04T03:06:06;101460.31;;;9.10;100.00
1207;BME280;593;53.184;8.216;2024-02-04T03:08:33;101467.06;;;9.08;100.00
1207;BME280;593;53.184;8.216;2024-02-04T03:10:58;101456.72;;;9.04;100.00
1207;BME280;593;53.184;8.216;2024-02-04T03:13:23;101459.34;;;8.99;100.00
1207;BME280;593;53.184;8.216;2024-02-04T03:15:49;101461.00;;;9.00;100.00
1207;BME280;593;53.184;8.216;2024-02-04T03:18:14;101455.59;;;9.00;100.00
1207;BME280;593;53.184;8.216;2024-02-04T03:20:40;101451.50;;;8.98;100.00
1207;BME280;593;53.184;8.216;2024-02-04T03:23:05;101456.09;;;8.97;100.00
1207;BME280;593;53.184;8.216;2024-02-04T03:25:31;101455.53;;;8.95;100.00
1207;BME280;593;53.184;8.216;2024-02-04T03:27:56;101457.19;;;8.96;100.00
1207;BME280;593;53.184;8.216;2024-02-04T03:30:21;101470.41;;;8.93;100.00
1207;BME280;593;53.184;8.216;2024-02-04T03:32:47;101469.59;;;8.92;100.00
1207;BME280;593;53.184;8.216;2024-02-04T03:35:12;101457.59;;;8.88;100.00
1207;BME280;593;53.184;8.216;2024-02-04T03:37:38;101453.00;;;8.89;100.00
1207;BME280;593;53.184;8.216;2024-02-04T03:40:04;101455.13;;;8.87;100.00
1207;BME280;593;53.184;8.216;2024-02-04T03:42:29;101461.31;;;8.82;100.00
1207;BME280;593;53.184;8.216;2024-02-04T03:44:55;101452.88;;;8.79;100.00
1207;BME280;593;53.184;8.216;2024-02-04T03:47:21;101463.78;;;8.84;100.00
1207;BME280;593;53.184;8.216;2024-02-04T03:49:46;101451.97;;;8.73;100.00
1207;BME280;593;53.184;8.216;2024-02-04T03:52:12;101466.19;;;8.80;100.00
1207;BME280;593;53.184;8.216;2024-02-04T03:54:37;101473.97;;;8.77;100.00
1207;BME280;593;53.184;8.216;2024-02-04T03:57:03;101471.88;;;8.79;100.00
1207;BME280;593;53.184;8.216;2024-02-04T03:59:28;101472.09;;;8.77;100.00
1207;BME280;593;53.184;8.216;2024-02-04T04:01:54;101471.53;;;8.75;100.00
1207;BME280;593;53.184;8.216;2024-02-04T04:04:20;101477.78;;;8.76;100.00
1207;BME280;593;53.184;8.216;2024-02-04T04:06:46;101460.13;;;8.73;100.00
1207;BME280;593;53.184;8.216;2024-02-04T04:09:12;101455.53;;;8.74;100.00
1207;BME280;593;53.184;8.216;2024-02-04T04:11:37;101447.63;;;8.72;100.00
1207;BME280;593;53.184;8.216;2024-02-04T04:14:03;101444.91;;;8.72;100.00
1207;BME280;593;53.184;8.216;2024-02-04T04:16:28;101462.50;;;8.70;100.00
1207;BME280;593;53.184;8.216;2024-02-04T04:18:54;101466.88;;;8.71;100.00
1207;BME280;593;53.184;8.216;2024-02-04T04:21:20;101467.69;;;8.71;100.00
1207;BME280;593;53.184;8.216;2024-02-04T04:23:45;101464.63;;;8.68;100.00
1207;BME280;593;53.184;8.216;2024-02-04T04:26:11;101461.09;;;8.67;100.00
1207;BME280;593;53.184;8.216;2024-02-04T04:28:36;101470.06;;;8.68;100.00
1207;BME280;593;53.184;8.216;2024-02-04T04:31:01;101474.66;;;8.67;100.00
1207;BME280;593;53.184;8.216;2024-02-04T04:33:27;101475.50;;;8.68;100.00
1207;BME280;593;53.184;8.216;2024-02-04T04:35:52;101463.00;;;8.67;100.00
1207;BME280;593;53.184;8.216;2024-02-04T04:38:18;101456.78;;;8.66;100.00
1207;BME280;593;53.184;8.216;2024-02-04T04:40:43;101454.06;;;8.66;100.00
1207;BME280;593;53.184;8.216;2024-02-04T04:43:09;101450.75;;;8.64;100.00
1207;BME280;593;53.184;8.216;2024-02-04T04:45:34;101449.13;;;8.63;100.00
1207;BME280;593;53.184;8.216;2024-02-04T04:48:00;101450.44;;;8.61;100.00
1207;BME280;593;53.184;8.216;2024-02-04T04:50:25;101456.69;;;8.61;100.00
1207;BME280;593;53.184;8.216;2024-02-04T04:52:51;101453.16;;;8.61;100.00
1207;BME280;593;53.184;8.216;2024-02-04T04:55:16;101430.91;;;8.59;100.00
1207;BME280;593;53.184;8.216;2024-02-04T04:57:45;101436.06;;;8.60;100.00
1207;BME280;593;53.184;8.216;2024-02-04T05:00:11;101436.91;;;8.61;100.00
1207;BME280;593;53.184;8.216;2024-02-04T05:02:39;101437.66;;;8.56;100.00
1207;BME280;593;53.184;8.216;2024-02-04T05:05:05;101441.41;;;8.55;100.00
1207;BME280;593;53.184;8.216;2024-02-04T05:07:31;101445.78;;;8.56;100.00
1207;BME280;593;53.184;8.216;2024-02-04T05:09:56;101436.31;;;8.59;100.00
1207;BME280;593;53.184;8.216;2024-02-04T05:12:21;101444.47;;;8.59;100.00
1207;BME280;593;53.184;8.216;2024-02-04T05:14:47;101447.41;;;8.57;100.00
1207;BME280;593;53.184;8.216;2024-02-04T05:17:12;101433.06;;;8.57;100.00
1207;BME280;593;53.184;8.216;2024-02-04T05:19:38;101430.91;;;8.59;100.00
1207;BME280;593;53.184;8.216;2024-02-04T05:22:03;101423.53;;;8.54;100.00
1207;BME280;593;53.184;8.216;2024-02-04T05:24:29;101423.81;;;8.58;100.00
1207;BME280;593;53.184;8.216;2024-02-04T05:26:54;101411.09;;;8.58;100.00
1207;BME280;593;53.184;8.216;2024-02-04T05:29:19;101410.03;;;8.59;100.00
1207;BME280;593;53.184;8.216;2024-02-04T05:31:45;101408.38;;;8.58;100.00
1207;BME280;593;53.184;8.216;2024-02-04T05:34:11;101386.69;;;8.58;100.00
1207;BME280;593;53.184;8.216;2024-02-04T05:36:36;101388.84;;;8.56;100.00
1207;BME280;593;53.184;8.216;2024-02-04T05:39:14;101400.25;;;8.58;100.00
1207;BME280;593;53.184;8.216;2024-02-04T05:41:40;101404.84;;;8.58;100.00
1207;BME280;593;53.184;8.216;2024-02-04T05:44:06;101399.91;;;8.55;100.00
1207;BME280;593;53.184;8.216;2024-02-04T05:46:34;101405.13;;;8.56;100.00
1207;BME280;593;53.184;8.216;2024-02-04T05:49:00;101403.22;;;8.57;100.00
1207;BME280;593;53.184;8.216;2024-02-04T05:51:25;101393.44;;;8.56;100.00
1207;BME280;593;53.184;8.216;2024-02-04T05:53:51;101391.28;;;8.58;100.00
1207;BME280;593;53.184;8.216;2024-02-04T05:56:17;101390.47;;;8.57;100.00
1207;BME280;593;53.184;8.216;2024-02-04T05:58:42;101401.31;;;8.57;100.00
1207;BME280;593;53.184;8.216;2024-02-04T06:01:07;101407.56;;;8.58;100.00
1207;BME280;593;53.184;8.216;2024-02-04T06:03:33;101395.66;;;8.59;100.00
1207;BME280;593;53.184;8.216;2024-02-04T06:05:58;101393.78;;;8.59;100.00
1207;BME280;593;53.184;8.216;2024-02-04T06:08:24;101375.03;;;8.58;100.00
1207;BME280;593;53.184;8.216;2024-02-04T06:10:49;101373.69;;;8.60;100.00
1207;BME280;593;53.184;8.216;2024-02-04T06:13:14;101373.13;;;8.58;100.00
1207;BME280;593;53.184;8.216;2024-02-04T06:15:40;101366.41;;;8.61;100.00
1207;BME280;593;53.184;8.216;2024-02-04T06:18:05;101365.56;;;8.60;100.00
1207;BME280;593;53.184;8.216;2024-02-04T06:20:31;101363.94;;;8.59;100.00
1207;BME280;593;53.184;8.216;2024-02-04T06:22:56;101369.09;;;8.61;100.00
1207;BME280;593;53.184;8.216;2024-02-04T06:25:23;101369.66;;;8.63;100.00
1207;BME280;593;53.184;8.216;2024-02-04T06:27:48;101341.31;;;8.49;100.00
1207;BME280;593;53.184;8.216;2024-02-04T06:30:14;101356.09;;;8.63;100.00
1207;BME280;593;53.184;8.216;2024-02-04T06:32:40;101364.25;;;8.63;100.00
1207;BME280;593;53.184;8.216;2024-02-04T06:35:06;101352.91;;;8.66;100.00
1207;BME280;593;53.184;8.216;2024-02-04T06:37:31;101364.56;;;8.66;100.00
1207;BME280;593;53.184;8.216;2024-02-04T06:39:57;101359.72;;;8.68;100.00
1207;BME280;593;53.184;8.216;2024-02-04T06:42:22;101368.91;;;8.67;100.00
1207;BME280;593;53.184;8.216;2024-02-04T06:44:48;101364.31;;;8.68;100.00
1207;BME280;593;53.184;8.216;2024-02-04T06:47:13;101369.72;;;8.68;100.00
1207;BME280;593;53.184;8.216;2024-02-04T06:49:40;101375.97;;;8.68;100.00
1207;BME280;593;53.184;8.216;2024-02-04T06:52:08;101355.69;;;8.71;100.00
1207;BME280;593;53.184;8.216;2024-02-04T06:54:34;101352.97;;;8.71;100.00
1207;BME280;593;53.184;8.216;2024-02-04T06:56:59;101359.72;;;8.68;100.00
1207;BME280;593;53.184;8.216;2024-02-04T06:59:25;101365.69;;;8.70;100.00
1207;BME280;593;53.184;8.216;2024-02-04T07:01:50;101348.38;;;8.71;100.00
1207;BME280;593;53.184;8.216;2024-02-04T07:04:17;101353.19;;;8.69;100.00
1207;BME280;593;53.184;8.216;2024-02-04T07:06:43;101350.81;;;8.73;100.00
1207;BME280;593;53.184;8.216;2024-02-04T07:09:08;101353.25;;;8.74;100.00
1207;BME280;593;53.184;8.216;2024-02-04T07:11:34;101362.22;;;8.75;100.00
1207;BME280;593;53.184;8.216;2024-02-04T07:13:59;101340.53;;;8.75;100.00
1207;BME280;593;53.184;8.216;2024-02-04T07:16:25;101334.03;;;8.76;100.00
1207;BME280;593;53.184;8.216;2024-02-04T07:18:51;101356.56;;;8.76;100.00
1207;BME280;593;53.184;8.216;2024-02-04T07:21:16;101342.19;;;8.76;100.00
1207;BME280;593;53.184;8.216;2024-02-04T07:23:42;101335.44;;;8.78;100.00
1207;BME280;593;53.184;8.216;2024-02-04T07:26:08;101325.41;;;8.79;100.00
1207;BME280;593;53.184;8.216;2024-02-04T07:28:34;101342.47;;;8.79;100.00
1207;BME280;593;53.184;8.216;2024-02-04T07:30:59;101345.78;;;8.81;100.00
1207;BME280;593;53.184;8.216;2024-02-04T07:33:24;101334.09;;;8.81;100.00
1207;BME280;593;53.184;8.216;2024-02-04T07:35:50;101316.44;;;8.78;100.00
1207;BME280;593;53.184;8.216;2024-02-04T07:38:15;101320.28;;;8.82;100.00
1207;BME280;593;53.184;8.216;2024-02-04T07:40:41;101322.97;;;8.82;100.00
1207;BME280;593;53.184;8.216;2024-02-04T07:43:09;101310.50;;;8.81;100.00
1207;BME280;593;53.184;8.216;2024-02-04T07:45:35;101311.91;;;8.84;100.00
1207;BME280;593;53.184;8.216;2024-02-04T07:48:00;101303.44;;;8.80;100.00
1207;BME280;593;53.184;8.216;2024-02-04T07:50:27;101308.84;;;8.80;100.00
1207;BME280;593;53.184;8.216;2024-02-04T07:52:52;101313.78;;;8.83;100.00
1207;BME280;593;53.184;8.216;2024-02-04T07:55:18;101325.47;;;8.84;100.00
1207;BME280;593;53.184;8.216;2024-02-04T07:57:43;101324.38;;;8.85;100.00
1207;BME280;593;53.184;8.216;2024-02-04T08:00:09;101321.09;;;8.83;100.00
1207;BME280;593;53.184;8.216;2024-02-04T08:02:36;101318.72;;;8.86;100.00
1207;BME280;593;53.184;8.216;2024-02-04T08:05:03;101327.91;;;8.85;100.00
1207;BME280;593;53.184;8.216;2024-02-04T08:07:29;101331.44;;;8.86;100.00
1207;BME280;593;53.184;8.216;2024-02-04T08:09:54;101337.94;;;8.85;100.00
1207;BME280;593;53.184;8.216;2024-02-04T08:12:20;101335.78;;;8.87;100.00
1207;BME280;593;53.184;8.216;2024-02-04T08:14:45;101340.13;;;8.88;100.00
1207;BME280;593;53.184;8.216;2024-02-04T08:17:11;101337.44;;;8.88;100.00
1207;BME280;593;53.184;8.216;2024-02-04T08:19:36;101333.31;;;8.85;100.00
1207;BME280;593;53.184;8.216;2024-02-04T08:22:02;101335.22;;;8.85;100.00
1207;BME280;593;53.184;8.216;2024-02-04T08:24:29;101328.97;;;8.84;100.00
1207;BME280;593;53.184;8.216;2024-02-04T08:26:57;101338.81;;;8.90;100.00
1207;BME280;593;53.184;8.216;2024-02-04T08:29:23;101330.94;;;8.89;100.00
1207;BME280;593;53.184;8.216;2024-02-04T08:31:48;101332.31;;;8.91;100.00
1207;BME280;593;53.184;8.216;2024-02-04T08:34:13;101324.75;;;8.93;100.00
1207;BME280;593;53.184;8.216;2024-02-04T08:36:39;101327.47;;;8.93;100.00
1207;BME280;593;53.184;8.216;2024-02-04T08:39:04;101328.28;;;8.94;100.00
1207;BME280;593;53.184;8.216;2024-02-04T08:41:30;101334.50;;;8.94;100.00
1207;BME280;593;53.184;8.216;2024-02-04T08:43:55;101329.34;;;8.93;100.00
1207;BME280;593;53.184;8.216;2024-02-04T08:46:20;101325.56;;;8.94;100.00
1207;BME280;593;53.184;8.216;2024-02-04T08:48:46;101339.69;;;8.96;100.00
1207;BME280;593;53.184;8.216;2024-02-04T08:51:12;101324.69;;;8.88;100.00
1207;BME280;593;53.184;8.216;2024-02-04T08:53:38;101331.28;;;8.97;100.00
1207;BME280;593;53.184;8.216;2024-02-04T08:56:07;101326.69;;;8.98;100.00
1207;BME280;593;53.184;8.216;2024-02-04T08:58:32;101331.28;;;8.97;100.00
1207;BME280;593;53.184;8.216;2024-02-04T09:00:58;101325.56;;;8.94;100.00
1207;BME280;593;53.184;8.216;2024-02-04T09:03:23;101333.50;;;9.00;100.00
1207;BME280;593;53.184;8.216;2024-02-04T09:05:49;101321.56;;;9.01;100.00
1207;BME280;593;53.184;8.216;2024-02-04T09:08:14;101332.44;;;9.01;100.00
1207;BME280;593;53.184;8.216;2024-02-04T09:10:40;101336.53;;;9.04;100.00
1207;BME280;593;53.184;8.216;2024-02-04T09:13:06;101341.69;;;9.06;100.00
1207;BME280;593;53.184;8.216;2024-02-04T09:15:32;101345.22;;;9.06;100.00
1207;BME280;593;53.184;8.216;2024-02-04T09:17:57;101324.03;;;9.03;100.00
1207;BME280;593;53.184;8.216;2024-02-04T09:20:23;101349.31;;;9.09;100.00
1207;BME280;593;53.184;8.216;2024-02-04T09:22:48;101333.28;;;9.07;100.00
1207;BME280;593;53.184;8.216;2024-02-04T09:25:13;101325.13;;;9.07;100.00
1207;BME280;593;53.184;8.216;2024-02-04T09:27:39;101323.25;;;9.08;100.00
1207;BME280;593;53.184;8.216;2024-02-04T09:30:05;101324.91;;;9.09;100.00
1207;BME280;593;53.184;8.216;2024-02-04T09:32:31;101332.78;;;9.10;100.00
1207;BME280;593;53.184;8.216;2024-02-04T09:34:57;101326.00;;;9.13;100.00
1207;BME280;593;53.184;8.216;2024-02-04T09:37:22;101327.66;;;9.14;100.00
1207;BME280;593;53.184;8.216;2024-02-04T09:39:48;101331.22;;;9.14;100.00
1207;BME280;593;53.184;8.216;2024-02-04T09:42:19;101314.66;;;9.16;100.00
1207;BME280;593;53.184;8.216;2024-02-04T09:44:48;101323.63;;;9.16;100.00
1207;BME280;593;53.184;8.216;2024-02-04T09:47:14;101318.47;;;9.20;100.00
1207;BME280;593;53.184;8.216;2024-02-04T09:49:40;101322.28;;;9.19;100.00
1207;BME280;593;53.184;8.216;2024-02-04T09:52:09;101320.69;;;9.23;100.00
1207;BME280;593;53.184;8.216;2024-02-04T09:54:58;101331.31;;;9.24;100.00
1207;BME280;593;53.184;8.216;2024-02-04T09:57:24;101334.81;;;9.25;100.00
1207;BME280;593;53.184;8.216;2024-02-04T09:59:50;101331.84;;;9.26;100.00
1207;BME280;593;53.184;8.216;2024-02-04T10:02:15;101318.56;;;9.30;100.00
1207;BME280;593;53.184;8.216;2024-02-04T10:04:41;101329.19;;;9.31;100.00
1207;BME280;593;53.184;8.216;2024-02-04T10:07:06;101320.53;;;9.34;100.00
1207;BME280;593;53.184;8.216;2024-02-04T10:09:32;101326.53;;;9.36;100.00
1207;BME280;593;53.184;8.216;2024-02-04T10:11:57;101337.38;;;9.36;100.00
1207;BME280;593;53.184;8.216;2024-02-04T10:14:23;101319.75;;;9.39;100.00
1207;BME280;593;53.184;8.216;2024-02-04T10:16:49;101324.91;;;9.40;100.00
1207;BME280;593;53.184;8.216;2024-02-04T10:19:15;101328.19;;;9.42;100.00
1207;BME280;593;53.184;8.216;2024-02-04T10:21:40;101325.25;;;9.44;100.00
1207;BME280;593;53.184;8.216;2024-02-04T10:24:06;101321.75;;;9.48;100.00
1207;BME280;593;53.184;8.216;2024-02-04T10:26:32;101316.88;;;9.50;100.00
1207;BME280;593;53.184;8.216;2024-02-04T10:29:02;101315.53;;;9.53;100.00
1207;BME280;593;53.184;8.216;2024-02-04T10:31:27;101320.13;;;9.52;100.00
1207;BME280;593;53.184;8.216;2024-02-04T10:33:54;101326.13;;;9.54;100.00
1207;BME280;593;53.184;8.216;2024-02-04T10:36:20;101314.19;;;9.55;100.00
1207;BME280;593;53.184;8.216;2024-02-04T10:38:46;101313.91;;;9.57;100.00
1207;BME280;593;53.184;8.216;2024-02-04T10:41:15;101316.13;;;9.60;100.00
1207;BME280;593;53.184;8.216;2024-02-04T10:43:43;101311.78;;;9.59;100.00
1207;BME280;593;53.184;8.216;2024-02-04T10:48:38;101309.38;;;9.67;100.00
1207;BME280;593;53.184;8.216;2024-02-04T10:51:14;101320.56;;;9.71;100.00
1207;BME280;593;53.184;8.216;2024-02-04T10:53:45;101289.59;;;9.72;100.00
1207;BME280;593;53.184;8.216;2024-02-04T10:58:56;101298.03;;;9.76;100.00
1207;BME280;593;53.184;8.216;2024-02-04T11:01:23;101327.69;;;9.82;100.00
1207;BME280;593;53.184;8.216;2024-02-04T11:03:51;101320.69;;;9.86;100.00
1207;BME280;593;53.184;8.216;2024-02-04T11:06:20;101331.81;;;9.90;100.00
1207;BME280;593;53.184;8.216;2024-02-04T11:08:46;101323.97;;;9.93;100.00
1207;BME280;593;53.184;8.216;2024-02-04T11:11:12;101316.66;;;9.94;100.00
1207;BME280;593;53.184;8.216;2024-02-04T11:13:40;101307.69;;;9.93;100.00
1207;BME280;593;53.184;8.216;2024-02-04T11:16:15;101300.06;;;9.95;100.00
1207;BME280;593;53.184;8.216;2024-02-04T11:27:28;101291.09;;;9.95;100.00
1207;BME280;593;53.184;8.216;2024-02-04T11:29:54;101291.69;;;9.97;100.00
1207;BME280;593;53.184;8.216;2024-02-04T11:32:19;101299.53;;;9.93;100.00
1207;BME280;593;53.184;8.216;2024-02-04T11:34:46;101279.63;;;9.83;100.00
1207;BME280;593;53.184;8.216;2024-02-04T11:37:16;101296.75;;;9.83;100.00
1207;BME280;593;53.184;8.216;2024-02-04T11:39:51;101296.22;;;9.86;100.00
1207;BME280;593;53.184;8.216;2024-02-04T11:42:17;101291.34;;;9.88;100.00
1207;BME280;593;53.184;8.216;2024-02-04T11:44:43;101296.81;;;9.93;100.00
1207;BME280;593;53.184;8.216;2024-02-04T11:47:10;101300.91;;;9.96;100.00
1207;BME280;593;53.184;8.216;2024-02-04T11:49:36;101293.81;;;9.95;100.00
1207;BME280;593;53.184;8.216;2024-02-04T11:52:02;101297.13;;;10.02;100.00
1207;BME280;593;53.184;8.216;2024-02-04T11:54:27;101286.53;;;10.05;100.00
1207;BME280;593;53.184;8.216;2024-02-04T11:56:53;101293.09;;;10.04;100.00
1207;BME280;593;53.184;8.216;2024-02-04T11:59:23;101293.84;;;10.00;100.00
1207;BME280;593;53.184;8.216;2024-02-04T12:02:04;101294.63;;;9.95;100.00
1207;BME280;593;53.184;8.216;2024-02-04T12:04:31;101293.06;;;9.99;100.00
1207;BME280;593;53.184;8.216;2024-02-04T12:06:57;101294.16;;;10.03;100.00
1207;BME280;593;53.184;8.216;2024-02-04T12:09:24;101289.81;;;10.07;100.00
1207;BME280;593;53.184;8.216;2024-02-04T12:11:49;101297.44;;;10.10;100.00
1207;BME280;593;53.184;8.216;2024-02-04T12:14:17;101294.25;;;10.13;100.00
1207;BME280;593;53.184;8.216;2024-02-04T12:16:43;101287.72;;;10.14;100.00
1207;BME280;593;53.184;8.216;2024-02-04T12:19:10;101278.47;;;10.15;100.00
1207;BME280;593;53.184;8.216;2024-02-04T12:21:37;101274.69;;;10.16;100.00
1207;BME280;593;53.184;8.216;2024-02-04T12:24:03;101271.16;;;10.16;100.00
1207;BME280;593;53.184;8.216;2024-02-04T12:26:29;101274.41;;;10.18;100.00
1207;BME280;593;53.184;8.216;2024-02-04T12:28:54;101267.38;;;10.22;100.00
1207;BME280;593;53.184;8.216;2024-02-04T12:31:26;101270.09;;;10.22;100.00
1207;BME280;593;53.184;8.216;2024-02-04T12:34:00;101267.94;;;10.24;100.00
1207;BME280;593;53.184;8.216;2024-02-04T12:36:33;101270.09;;;10.22;100.00
1207;BME280;593;53.184;8.216;2024-02-04T12:39:03;101264.38;;;10.23;100.00
1207;BME280;593;53.184;8.216;2024-02-04T12:41:35;101268.75;;;10.24;100.00
1207;BME280;593;53.184;8.216;2024-02-04T12:44:01;101258.41;;;10.21;100.00
1207;BME280;593;53.184;8.216;2024-02-04T12:46:32;101266.59;;;10.26;100.00
1207;BME280;593;53.184;8.216;2024-02-04T12:48:58;101258.44;;;10.26;100.00
1207;BME280;593;53.184;8.216;2024-02-04T12:51:24;101272.53;;;10.23;100.00
1207;BME280;593;53.184;8.216;2024-02-04T12:53:50;101254.34;;;10.24;100.00
1207;BME280;593;53.184;8.216;2024-02-04T12:56:16;101257.06;;;10.24;100.00
1207;BME280;593;53.184;8.216;2024-02-04T12:58:42;101262.75;;;10.22;100.00
1207;BME280;593;53.184;8.216;2024-02-04T13:01:08;101261.38;;;10.25;100.00
1207;BME280;593;53.184;8.216;2024-02-04T13:03:34;101241.56;;;10.24;100.00
1207;BME280;593;53.184;8.216;2024-02-04T13:06:00;101236.91;;;10.25;100.00
1207;BME280;593;53.184;8.216;2024-02-04T13:08:25;101236.91;;;10.25;100.00
1207;BME280;593;53.184;8.216;2024-02-04T13:10:56;101236.91;;;10.25;100.00
1207;BME280;593;53.184;8.216;2024-02-04T13:13:22;101247.00;;;10.24;100.00
1207;BME280;593;53.184;8.216;2024-02-04T13:15:51;101238.84;;;10.24;100.00
1207;BME280;593;53.184;8.216;2024-02-04T13:18:16;101245.88;;;10.20;100.00
1207;BME280;593;53.184;8.216;2024-02-04T13:20:42;101249.16;;;10.22;100.00
1207;BME280;593;53.184;8.216;2024-02-04T13:23:08;101233.63;;;10.18;100.00
1207;BME280;593;53.184;8.216;2024-02-04T13:25:34;101223.31;;;10.20;100.00
1207;BME280;593;53.184;8.216;2024-02-04T13:28:00;101225.50;;;10.23;100.00
1207;BME280;593;53.184;8.216;2024-02-04T13:30:25;101238.28;;;10.22;100.00
1207;BME280;593;53.184;8.216;2024-02-04T13:32:52;101228.75;;;10.25;100.00
1207;BME280;593;53.184;8.216;2024-02-04T13:35:17;101225.50;;;10.23;100.00